Nearby METAR Reports

 

KCXP - Carson City, Nevada, USA
Distance from station: WSW 2mi, 3km
Updated: Mon, Dec-11-2017 12:55pm PST
Clear
Clear
 Wind from ENE
Wind: ENE 7 mph , 11 km/h
Temperature: 43°F , 6°C
Wind Chill: 39°F , 4°C
Dew Point: 18°F , -8°C
Humidity: 36%
Barometer: 30.51 inHg , 1033.2 hPa
Clouds: Clear
Visibility: 10 miles , 16 km
2017/12/11 20:55 KCXP 112055Z AUTO 07006KT 10SM CLR 06/M08 A3051 RMK AO2
KRNO - Reno, Nevada, USA
Distance from station: N 21mi, 34km
Updated: Mon, Dec-11-2017 12:55pm PST
Mostly cloudy
Mostly cloudy
 Wind from calm
Wind: Calm
Temperature: 41°F , 5°C
Dew Point: 18°F , -8°C
Humidity: 39%
Barometer: 30.51 inHg , 1033.2 hPa
Clouds: Mostly cloudy
Visibility: 10 miles , 16 km
Cloud details: Mostly cloudy 25000 ft
2017/12/11 20:55 KRNO 112055Z 00000KT 10SM BKN250 05/M08 A3051 RMK AO2 SLP344 HZ SE-W T00501078 58021
 
KTRK - Truckee Tahoe, California, USA
Distance from station: WNW 24mi, 38km
Updated: Mon, Dec-11-2017 12:45pm PST
Partly cloudy
Partly cloudy
 Wind from calm
Wind: Calm
Temperature: 41°F , 5°C
Dew Point: 18°F , -8°C
Humidity: 39%
Barometer: 30.48 inHg , 1032.2 hPa
Clouds: Partly cloudy
Visibility: 10 miles , 16 km
Cloud details: Partly cloudy 21000 ft
2017/12/11 20:45 KTRK 112045Z 00000KT 10SM SCT210 05/M08 A3048
KTVL - South Lake Tahoe, California, USA
Distance from station: SW 26mi, 42km
Updated: Mon, Dec-11-2017 12:53pm PST
Clear
Clear
 Wind from NE
Wind: NE 3 mph , 6 km/h
Temperature: 46°F , 8°C
Dew Point: 19°F , -7°C
Humidity: 34%
Barometer: 30.47 inHg , 1031.8 hPa
Clouds: Clear
Visibility: 10 miles , 16 km
2017/12/11 20:53 KTVL 112053Z AUTO 05003KT 10SM CLR 08/M07 A3047 RMK AO2 SLP323 T00831067 58016
 
KRTS - Reno/Stead, Nevada, USA
Distance from station: NNW 34mi, 54km
Updated: Mon, Dec-11-2017 12:55pm PST
Clear
Clear
 Wind from ESE
Wind: ESE 5 mph , 7 km/h
Temperature: 39°F , 4°C
Wind Chill: 35°F , 2°C
Dew Point: 16°F , -9°C
Humidity: 39%
Barometer: 30.52 inHg , 1033.5 hPa
Clouds: Clear
Visibility: 10 miles , 16 km
2017/12/11 20:55 KRTS 112055Z AUTO 12004KT 10SM CLR 04/M09 A3052 RMK AO2
KBLU - Emigrant Gap, California, USA
Distance from station: W 54mi, 87km
Updated: Mon, Dec-11-2017 12:52pm PST
Clear
Clear
 Wind from calm
Wind: Calm
Temperature: 64°F , 18°C
Dew Point: 12°F , -11°C
Humidity: 13%
Barometer: 30.41 inHg , 1029.8 hPa
Clouds: Clear
Visibility: 10 miles , 16 km
2017/12/11 20:52 KBLU 112052Z AUTO 00000KT 10SM CLR 18/M11 A3041 RMK AO2 SLP232 T01831111 58010 TSNO
 
KNFL - Fallon Nas, Nevada, USA
Distance from station: ENE 56mi, 89km
Updated: Mon, Dec-11-2017 12:56pm PST
Partly cloudy
Partly cloudy
 Wind from calm
Wind: Calm
Temperature: 43°F , 6°C
Dew Point: 16°F , -9°C
Humidity: 34%
Barometer: 30.52 inHg , 1033.5 hPa
Clouds: Partly cloudy
Visibility: 10 miles , 16 km
Cloud details: Partly cloudy 18000 ft
Partly cloudy 22000 ft
2017/12/11 20:56 KNFL 112056Z 00000KT 10SM SCT180 SCT220 06/M09 A3052 RMK AO2 SLP286 T00561089 58019
KBAN - Bridgeport(Mcmwt, California, USA
Distance from station: S 60mi, 96km
Updated: Thu, Nov-09-2017 4:52am PST
NOT Current
Few Clouds
Few Clouds
 Wind from WSW
Wind: WSW 23 mph , 37 km/h, Gust: 37 mph , 59 km/h
Barometer: 29.95 inHg , 1014.2 hPa
Clouds: Few Clouds
Visibility: 10 miles , 16 km
Cloud details: Few Clouds 3500 ft
2017/11/09 12:52 KBAN 091252Z AUTO 24020G32KT 10SM FEW035 A2995 RMK AO2 PK WND 25042/1220 SNB00E04 SLPNO P0000 $
 
KPVF - Placerville, California, USA
Distance from station: WSW 66mi, 105km
Updated: Mon, Dec-11-2017 12:55pm PST
Clear
Clear
 Wind from calm
Wind: Calm
Temperature: 59°F , 15°C
Dew Point: 27°F , -3°C
Humidity: 29%
Barometer: 30.34 inHg , 1027.4 hPa
Clouds: Clear
Visibility: 10 miles , 16 km
2017/12/11 20:55 KPVF 112055Z AUTO 00000KT 10SM CLR 15/M03 A3034 RMK AO1
KGOO - Grass Valley, California, USA
Distance from station: W 70mi, 112km
Updated: Mon, Dec-11-2017 1:00pm PST
Clear
Clear
 Wind from NW
Wind: NW 5 mph , 7 km/h
Temperature: 63°F , 17°C
Dew Point: 23°F , -5°C
Humidity: 22%
Barometer: 30.33 inHg , 1027.1 hPa
Clouds: Clear
Visibility: 10 miles , 16 km
2017/12/11 21:00 KGOO 112100Z AUTO 32004KT 10SM CLR 17/M05 A3033 RMK AO1
 
KAUN - Auburn Muni, California, USA
Distance from station: WSW 76mi, 123km
Updated: Mon, Dec-11-2017 12:55pm PST
Clear
Clear
 Wind from calm
Wind: Calm
Temperature: 63°F , 17°C
Dew Point: 30°F , -1°C
Humidity: 30%
Barometer: 30.31 inHg , 1026.4 hPa
Clouds: Clear
Visibility: 10 miles , 16 km
2017/12/11 20:55 KAUN 112055Z AUTO 00000KT 10SM CLR 17/M01 A3031 RMK AO1
KLOL - Lovelock, Nevada, USA
Distance from station: NE 85mi, 137km
Updated: Mon, Dec-11-2017 12:53pm PST
Clear
Clear
 Wind from varies
Wind: varies 3 mph , 6 km/h
Temperature: 39°F , 4°C
Dew Point: 19°F , -7°C
Humidity: 45%
Barometer: 30.53 inHg , 1033.9 hPa
Clouds: Clear
Visibility: 10 miles , 16 km
2017/12/11 20:53 KLOL 112053Z AUTO VRB03KT 10SM CLR 04/M07 A3053 RMK AO2 SLP375 T00391067 58018 TSNO
 
KLHM - Lincoln, California, USA
Distance from station: WSW 91mi, 146km
Updated: Mon, Dec-11-2017 12:55pm PST
Clear
Clear
 Wind from calm
Wind: Calm
Temperature: 57°F , 14°C
Dew Point: 37°F , 3°C
Humidity: 48%
Barometer: 30.30 inHg , 1026.1 hPa
Clouds: Clear
Visibility: 10 miles , 16 km
2017/12/11 20:55 KLHM 112055Z AUTO 00000KT 10SM CLR 14/03 A3030 RMK AO1
KBAB - Beale Afb/Marysv, California, USA
Distance from station: W 92mi, 148km
Updated: Mon, Dec-11-2017 12:58pm PST
Clear
Clear
 Wind from calm
Wind: Calm
Temperature: 59°F , 15°C
Dew Point: 37°F , 3°C
Humidity: 45%
Barometer: 30.29 inHg , 1025.7 hPa
Clouds: Clear
Visibility: 10 miles , 16 km
2017/12/11 20:58 KBAB 112058Z 00000KT 10SM CLR 15/03 A3029 RMK AO2A SLP261 T01460025 58018 $
 
KMHR - Mather Field, California, USA
Distance from station: WSW 97mi, 156km
Updated: Mon, Dec-11-2017 12:45pm PST
Mostly cloudy
Mostly cloudy
 Wind from NNW
Wind: NNW 5 mph , 7 km/h
Temperature: 59°F , 15°C
Dew Point: 39°F , 4°C
Humidity: 48%
Barometer: 30.31 inHg , 1026.4 hPa
Clouds: Mostly cloudy
Visibility: 10 miles , 16 km
Cloud details: Mostly cloudy 25000 ft
2017/12/11 20:45 KMHR 112045Z 33004KT 10SM BKN250 15/04 A3031
KMCC - Mcclellan Afb, California, USA
Distance from station: WSW 99mi, 159km
Updated: Mon, Dec-11-2017 12:50pm PST
Clear
Clear
 Wind from NNW
Wind: NNW 5 mph , 7 km/h
Temperature: 57°F , 14°C
Dew Point: 37°F , 3°C
Humidity: 48%
Barometer: 30.33 inHg , 1027.1 hPa
Clouds: Clear
Visibility: 10 miles , 16 km
2017/12/11 20:50 KMCC 112050Z AUTO 34004KT 10SM CLR 14/03 A3033 RMK AO2
 
KMYV - Marysville, California, USA
Distance from station: W 100mi, 161km
Updated: Mon, Dec-11-2017 12:53pm PST
Clear
Clear
 Wind from NNW
Wind: NNW 6 mph , 9 km/h
Temperature: 61°F , 16°C
Dew Point: 36°F , 2°C
Humidity: 39%
Barometer: 30.31 inHg , 1026.4 hPa
Clouds: Clear
Visibility: 10 miles , 16 km
2017/12/11 20:53 KMYV 112053Z AUTO 33005KT 10SM CLR 16/02 A3031 RMK AO2 SLP268 T01560022 58018